createdAt,value
2022-09-09T00:02:39.097Z,14.4
2022-09-09T00:17:39.006Z,14.4
2022-09-09T00:32:39.005Z,14.4
2022-09-09T00:47:39.013Z,14.3
2022-09-09T01:02:39.081Z,14.2
2022-09-09T01:17:39.003Z,14.4
2022-09-09T01:32:39.000Z,14.4
2022-09-09T01:47:39.001Z,14.3
2022-09-09T02:02:39.028Z,14.5
2022-09-09T02:17:39.006Z,14.4
2022-09-09T02:32:39.002Z,14.6
2022-09-09T02:47:39.007Z,14.6
2022-09-09T03:02:39.023Z,14.7
2022-09-09T03:17:39.002Z,14.8
2022-09-09T03:32:39.000Z,14.8
2022-09-09T03:47:39.007Z,14.7
2022-09-09T04:02:39.071Z,14.6
2022-09-09T04:17:39.003Z,14.8
2022-09-09T04:32:39.004Z,14.9
2022-09-09T04:47:39.006Z,14.8
2022-09-09T05:02:39.066Z,14.8
2022-09-09T05:17:39.000Z,14.9
2022-09-09T05:32:39.002Z,14.7
2022-09-09T05:47:38.994Z,14.7
2022-09-09T06:02:39.134Z,14.7
2022-09-09T06:17:39.004Z,14.7
2022-09-09T06:32:39.001Z,14.9
2022-09-09T06:47:39.006Z,15.6
2022-09-09T07:02:39.014Z,15.8
2022-09-09T07:17:39.027Z,15.9
2022-09-09T07:32:39.000Z,15.9
2022-09-09T07:47:39.008Z,16.2
2022-09-09T08:02:39.001Z,16.6
2022-09-09T08:17:39.012Z,16.6
2022-09-09T08:32:39.907Z,17.1
2022-09-09T08:47:39.001Z,17.1
2022-09-09T09:02:39.004Z,17.5
2022-09-09T09:17:39.019Z,18.1
2022-09-09T09:32:39.126Z,18.1
2022-09-09T09:47:39.004Z,18
2022-09-09T10:02:39.026Z,17.8
2022-09-09T10:17:39.006Z,17.7
2022-09-09T10:32:39.009Z,17.8
2022-09-09T10:47:39.004Z,18.1
2022-09-09T11:02:39.006Z,18.2
2022-09-09T11:17:39.003Z,18.6
2022-09-09T11:32:39.009Z,18.1
2022-09-09T11:47:39.018Z,17.4
2022-09-09T12:02:39.052Z,17.1
2022-09-09T12:17:39.014Z,17.8
2022-09-09T12:32:39.013Z,18.4
2022-09-09T12:47:39.003Z,17.7
2022-09-09T13:02:39.092Z,17.8
2022-09-09T13:17:39.007Z,18.5
2022-09-09T13:32:38.999Z,19.3
2022-09-09T13:47:39.007Z,18.7
2022-09-09T14:02:39.055Z,19.6
2022-09-09T14:17:39.004Z,19.8
2022-09-09T14:32:39.004Z,19.6
2022-09-09T14:47:39.018Z,19.4
2022-09-09T15:02:39.057Z,20.3
2022-09-09T15:17:39.008Z,17.8
2022-09-09T15:32:39.005Z,19.4
2022-09-09T15:47:39.007Z,18.9
2022-09-09T16:02:39.042Z,19.1
2022-09-09T16:17:39.008Z,19.6
2022-09-09T16:32:39.007Z,18.8
2022-09-09T16:47:39.018Z,18.2
2022-09-09T17:02:39.032Z,17.5
2022-09-09T17:17:39.019Z,17.2
2022-09-09T17:32:39.003Z,17.2
2022-09-09T17:47:39.012Z,17.1
2022-09-09T18:02:39.082Z,16.8
2022-09-09T18:17:39.018Z,16.4
2022-09-09T18:32:39.001Z,16.4
2022-09-09T18:47:39.005Z,16.2
2022-09-09T19:02:39.013Z,16
2022-09-09T19:17:39.002Z,15.9
2022-09-09T19:32:54.020Z,16.1
2022-09-09T19:47:39.004Z,16
2022-09-09T20:02:39.078Z,15.7
2022-09-09T20:17:39.016Z,15.7
2022-09-09T20:32:39.003Z,15.8
2022-09-09T20:47:39.003Z,15.8
2022-09-09T21:02:39.037Z,15.6
2022-09-09T21:17:39.000Z,15.4
2022-09-09T21:32:39.016Z,15.4
2022-09-09T21:47:39.002Z,15.3
2022-09-09T22:02:39.076Z,15.1
2022-09-09T22:17:39.020Z,14.9
2022-09-09T22:32:39.014Z,14.7
2022-09-09T22:47:39.007Z,14.5
2022-09-09T23:02:40.763Z,14.6
2022-09-09T23:17:39.010Z,14.6
2022-09-09T23:32:38.999Z,14.7
2022-09-09T23:47:39.002Z,14.8
